Ana Sayfa
METAR-TAF:

METAR-TAF

Havaalanları :

N'Djamena, Çad

Enlem: 12-08N, Boylam: 015-02E, yükseklik: 295 m

Güncel hava durumu gözlemi

Rapor saat 00:00 UTC de 24 dakika önce yapıldı.
Rüzgar güneydan 4 kt
Sıcaklık 28°C
Nem 89%
Basınç 1009 hPa
Görüş mesafesi: 8000 m

METAR: FTTJ 230000Z 18004KT 8000 NSC 28/26 Q1009 NOSIG

Saat: 01:24 (00:24 UTC)

Tahmin

Rapor saat 23:00 UTC de 1 saat ve 24 dakika önce yapıldı.
Ayın 23'si saat 00 UTC'den ayın 24'si saat 06 UTC'ye kadar geçerli Tahmin
Rüzgar değişken yönden 5 kt
Görüş mesafesi: 8000 m
Geçici
ayın 23'si saat 16 UTC'den ayın 23'si saat 19 UTC'ye kadar
Görüş mesafesi: 4000 m
yaygın toz

TAF: FTTJ 222300Z 2300/2406 VRB05KT 8000 NSC TEMPO 2316/2319 4000 DU

4.000'den fazla havaalanı için hava durumu gözlemleri ve tahminleri (METAR ve TAF raporları).

Kullanılabilir istasyonlar harita üzerinde sarı ve kırmızı noktalarla gösterilir.

İstasyonun adını görmek için fareyi noktanın üzerinde gezdirin.

Sonrasında hava gözlem ve tahminlerini görmek için tıklayın.

Haritayı değiştirmek için: yaklaştırmak için siyah artı işaretli yeşil düğmeye ve uzaklaştırmak için de eksi işaretli düğmeye hızla tıklayın; bitişik haritalar için yeşil okları kullanın.


METAR-TAF: